createdAt,value
2022-10-01T00:00:16.309Z,8.60
2022-10-01T00:03:42.495Z,8.40
2022-10-01T00:06:54.810Z,8.10
2022-10-01T00:13:09.346Z,7.35
2022-10-01T00:16:15.836Z,8.77
2022-10-01T00:19:23.148Z,9.63
2022-10-01T00:22:33.264Z,9.15
2022-10-01T00:25:39.557Z,8.15
2022-10-01T00:28:49.894Z,10.07
2022-10-01T00:31:55.070Z,8.73
2022-10-01T00:35:03.458Z,8.35
2022-10-01T00:38:11.531Z,10.02
2022-10-01T00:41:17.266Z,8.20
2022-10-01T00:44:32.319Z,10.00
2022-10-01T00:47:41.184Z,8.20
2022-10-01T00:50:51.150Z,10.70
2022-10-01T00:54:03.290Z,8.70
2022-10-01T00:57:10.944Z,10.50
2022-10-01T01:03:41.890Z,8.95
2022-10-01T01:06:48.946Z,12.70
2022-10-01T01:09:58.115Z,9.32
2022-10-01T01:13:09.276Z,8.98
2022-10-01T01:16:20.387Z,9.07
2022-10-01T01:19:35.970Z,9.55
2022-10-01T01:22:43.637Z,11.48
2022-10-01T01:25:57.320Z,10.18
2022-10-01T01:29:08.854Z,8.98
2022-10-01T01:32:16.325Z,8.55
2022-10-01T01:35:24.614Z,8.75
2022-10-01T01:38:34.701Z,9.88
2022-10-01T01:42:00.869Z,8.77
2022-10-01T01:45:40.405Z,8.77
2022-10-01T01:49:10.869Z,11.30
2022-10-01T01:52:17.524Z,11.00
2022-10-01T01:55:24.636Z,11.27
2022-10-01T01:58:32.942Z,9.02
2022-10-01T02:01:44.091Z,9.85
2022-10-01T02:04:56.787Z,8.88
2022-10-01T02:08:17.026Z,9.95
2022-10-01T02:11:27.091Z,11.40
2022-10-01T02:14:38.722Z,14.05
2022-10-01T02:17:51.020Z,12.00
2022-10-01T02:21:06.483Z,11.80
2022-10-01T02:24:19.636Z,10.60
2022-10-01T02:27:28.963Z,9.83
2022-10-01T02:30:35.805Z,10.63
2022-10-01T02:33:42.877Z,9.75
2022-10-01T02:36:52.831Z,10.82
2022-10-01T02:40:00.845Z,10.40
2022-10-01T02:43:09.938Z,13.13
2022-10-01T02:46:22.141Z,11.75
2022-10-01T02:49:30.709Z,11.50
2022-10-01T02:52:45.741Z,12.15
2022-10-01T02:58:54.520Z,12.70
2022-10-01T03:02:05.510Z,11.38
2022-10-01T03:05:12.448Z,12.40
2022-10-01T03:08:20.712Z,15.18
2022-10-01T03:11:26.857Z,13.00
2022-10-01T03:14:34.698Z,12.48
2022-10-01T03:17:41.299Z,11.52
2022-10-01T03:20:47.562Z,13.98
2022-10-01T03:24:01.821Z,11.77
2022-10-01T03:27:07.451Z,15.57
2022-10-01T03:30:13.542Z,13.27
2022-10-01T03:33:21.273Z,15.13
2022-10-01T03:36:32.622Z,16.25
2022-10-01T03:39:45.419Z,14.05
2022-10-01T03:42:56.878Z,13.73
2022-10-01T03:46:02.335Z,13.93
2022-10-01T03:49:15.326Z,13.90
2022-10-01T03:52:21.722Z,14.50
2022-10-01T03:55:39.132Z,14.20
2022-10-01T03:58:45.521Z,13.48
2022-10-01T04:01:56.822Z,15.57
2022-10-01T04:08:13.297Z,16.15
2022-10-01T04:11:24.731Z,13.73
2022-10-01T04:14:33.729Z,14.02
2022-10-01T04:17:43.794Z,15.40
2022-10-01T04:20:51.978Z,15.82
2022-10-01T04:24:01.642Z,14.95
2022-10-01T04:27:19.631Z,16.08
2022-10-01T04:30:25.258Z,14.27
2022-10-01T04:33:31.230Z,16.35
2022-10-01T04:36:42.518Z,14.23
2022-10-01T04:39:54.478Z,18.02
2022-10-01T04:43:05.958Z,15.52
2022-10-01T04:46:12.010Z,15.18
2022-10-01T04:49:19.193Z,16.65
2022-10-01T04:52:26.203Z,17.80
2022-10-01T04:55:32.963Z,15.43
2022-10-01T04:58:47.540Z,15.45
2022-10-01T05:01:52.822Z,15.85
2022-10-01T05:05:00.734Z,15.50
2022-10-01T05:08:07.165Z,16.05
2022-10-01T05:11:13.885Z,20.23
2022-10-01T05:14:23.891Z,16.80
2022-10-01T05:17:35.071Z,16.60
2022-10-01T05:20:41.989Z,15.15
2022-10-01T05:23:48.554Z,17.45
2022-10-01T05:26:59.161Z,19.58
2022-10-01T05:30:12.501Z,20.55
2022-10-01T05:33:21.755Z,17.95
2022-10-01T05:36:27.795Z,16.27
2022-10-01T05:39:33.361Z,16.88
2022-10-01T05:42:42.103Z,16.98
2022-10-01T05:45:51.595Z,19.25
2022-10-01T05:48:59.087Z,17.20
2022-10-01T05:52:10.292Z,15.30
2022-10-01T05:55:16.078Z,17.00
2022-10-01T05:58:22.170Z,17.30
2022-10-01T06:01:32.118Z,16.52
2022-10-01T06:04:40.988Z,15.25
2022-10-01T06:07:47.147Z,17.77
2022-10-01T06:10:52.689Z,15.98
2022-10-01T06:13:58.802Z,18.17
2022-10-01T06:17:17.082Z,16.23
2022-10-01T06:20:26.160Z,15.88
2022-10-01T06:23:33.589Z,16.33
2022-10-01T06:26:43.082Z,17.17
2022-10-01T06:29:48.391Z,15.95
2022-10-01T06:33:02.944Z,17.80
2022-10-01T06:36:08.689Z,16.17
2022-10-01T06:39:16.064Z,15.77
2022-10-01T06:42:48.975Z,17.80
2022-10-01T06:46:01.983Z,16.85
2022-10-01T06:49:36.010Z,15.27
2022-10-01T06:56:21.472Z,17.38
2022-10-01T06:59:29.293Z,15.75
2022-10-01T07:02:52.917Z,17.60
2022-10-01T07:06:26.676Z,17.40
2022-10-01T07:09:45.719Z,17.08
2022-10-01T07:12:54.029Z,16.52
2022-10-01T07:16:00.390Z,15.95
2022-10-01T07:19:05.923Z,15.50
2022-10-01T07:22:14.868Z,16.88
2022-10-01T07:25:28.931Z,17.30
2022-10-01T07:28:45.246Z,14.60
2022-10-01T07:31:51.791Z,16.55
2022-10-01T07:34:58.879Z,15.20
2022-10-01T07:38:10.285Z,15.13
2022-10-01T07:41:18.169Z,17.42
2022-10-01T07:44:25.263Z,15.90
2022-10-01T07:47:32.957Z,15.13
2022-10-01T07:50:39.154Z,16.02
2022-10-01T07:53:51.083Z,14.73
2022-10-01T07:56:57.740Z,15.50
2022-10-01T08:00:03.410Z,12.52
2022-10-01T08:03:12.675Z,17.10
2022-10-01T08:06:25.209Z,13.52
2022-10-01T08:09:38.919Z,14.38
2022-10-01T08:12:45.186Z,16.38
2022-10-01T08:15:54.203Z,16.38
2022-10-01T08:19:01.279Z,16.33
2022-10-01T08:22:07.398Z,16.08
2022-10-01T08:25:15.970Z,11.60
2022-10-01T08:28:24.968Z,15.35
2022-10-01T08:31:43.033Z,13.32
2022-10-01T08:34:54.502Z,13.07
2022-10-01T08:38:04.133Z,15.35
2022-10-01T08:41:23.368Z,13.75
2022-10-01T08:44:32.656Z,15.88
2022-10-01T08:47:41.486Z,11.50
2022-10-01T08:50:55.432Z,12.10
2022-10-01T08:54:07.645Z,12.45
2022-10-01T08:57:25.110Z,10.93
2022-10-01T09:00:33.063Z,11.30
2022-10-01T09:03:42.241Z,12.70
2022-10-01T09:06:54.425Z,9.93
2022-10-01T09:10:07.221Z,10.63
2022-10-01T09:13:21.751Z,10.48
2022-10-01T09:16:29.851Z,9.45
2022-10-01T09:19:47.883Z,11.13
2022-10-01T09:23:06.193Z,9.23
2022-10-01T09:26:25.669Z,9.20
2022-10-01T09:29:35.807Z,11.93
2022-10-01T09:32:46.323Z,9.55
2022-10-01T09:35:57.175Z,11.40
2022-10-01T09:39:10.138Z,10.80
2022-10-01T09:42:15.279Z,9.40
2022-10-01T09:45:33.292Z,9.35
2022-10-01T09:48:43.375Z,9.15
2022-10-01T09:51:53.331Z,7.75
2022-10-01T09:55:01.125Z,8.75
2022-10-01T09:58:12.343Z,8.73
2022-10-01T10:01:26.922Z,8.68
2022-10-01T10:04:35.535Z,9.73
2022-10-01T10:07:43.069Z,8.32
2022-10-01T10:11:00.654Z,8.65
2022-10-01T10:14:06.947Z,11.35
2022-10-01T10:17:18.908Z,6.57
2022-10-01T10:20:27.602Z,7.32
2022-10-01T10:23:34.540Z,7.13
2022-10-01T10:26:42.896Z,7.40
2022-10-01T10:29:49.501Z,7.88
2022-10-01T10:33:06.020Z,6.45
2022-10-01T10:36:16.193Z,7.60
2022-10-01T10:39:23.925Z,6.25
2022-10-01T10:42:32.066Z,7.13
2022-10-01T10:45:42.578Z,8.00
2022-10-01T10:48:53.263Z,6.47
2022-10-01T10:52:05.247Z,6.40
2022-10-01T10:55:24.310Z,6.38
2022-10-01T10:58:32.958Z,7.25
2022-10-01T11:01:45.107Z,7.45
2022-10-01T11:05:03.622Z,6.75
2022-10-01T11:08:17.809Z,6.95
2022-10-01T11:11:33.862Z,5.75
2022-10-01T11:14:50.445Z,6.55
2022-10-01T11:18:05.429Z,4.72
2022-10-01T11:21:32.347Z,9.15
2022-10-01T11:24:49.083Z,5.75
2022-10-01T11:27:58.375Z,6.85
2022-10-01T11:31:11.830Z,7.75
2022-10-01T11:34:29.494Z,16.63
2022-10-01T11:37:45.322Z,8.23
2022-10-01T11:40:59.860Z,9.95
2022-10-01T11:44:10.383Z,9.88
2022-10-01T11:47:22.856Z,5.47
2022-10-01T11:50:37.268Z,5.82
2022-10-01T11:54:00.786Z,5.57
2022-10-01T11:57:27.326Z,6.45
2022-10-01T12:00:39.020Z,5.22
2022-10-01T12:03:54.814Z,6.35
2022-10-01T12:07:13.230Z,5.32
2022-10-01T12:10:23.739Z,4.95
2022-10-01T12:13:37.335Z,4.32
2022-10-01T12:16:47.464Z,5.68
2022-10-01T12:19:58.323Z,4.38
2022-10-01T12:23:08.545Z,7.57
2022-10-01T12:26:27.796Z,4.50
2022-10-01T12:29:42.143Z,5.57
2022-10-01T12:32:56.256Z,5.72
2022-10-01T12:36:06.389Z,5.90
2022-10-01T12:39:35.356Z,6.07
2022-10-01T12:42:54.828Z,6.15
2022-10-01T12:46:10.311Z,5.03
2022-10-01T12:49:37.078Z,4.78
2022-10-01T12:53:16.702Z,6.38
2022-10-01T12:56:31.656Z,4.07
2022-10-01T12:59:45.242Z,3.63
2022-10-01T13:03:10.925Z,3.67
2022-10-01T13:06:22.584Z,6.28
2022-10-01T13:09:31.938Z,5.03
2022-10-01T13:12:52.553Z,6.55
2022-10-01T13:16:02.898Z,5.57
2022-10-01T13:19:23.187Z,5.90
2022-10-01T13:22:37.798Z,4.47
2022-10-01T13:25:48.140Z,5.57
2022-10-01T13:29:02.811Z,5.32
2022-10-01T13:32:26.088Z,4.35
2022-10-01T13:35:36.789Z,4.00
2022-10-01T13:38:46.705Z,4.78
2022-10-01T13:41:57.459Z,5.20
2022-10-01T13:45:07.829Z,5.07
2022-10-01T13:48:25.160Z,4.25
2022-10-01T13:51:40.200Z,6.10
2022-10-01T13:58:11.297Z,4.63
2022-10-01T14:01:31.821Z,4.97
2022-10-01T14:04:42.614Z,5.03
2022-10-01T14:07:53.814Z,5.05
2022-10-01T14:11:15.049Z,5.05
2022-10-01T14:14:36.144Z,4.57
2022-10-01T14:17:42.948Z,4.22
2022-10-01T14:40:35.191Z,4.93
2022-10-01T14:46:58.753Z,3.55
2022-10-01T14:50:12.727Z,4.80
2022-10-01T14:53:19.510Z,5.18
2022-10-01T14:56:25.620Z,4.72
2022-10-01T14:59:38.826Z,3.70
2022-10-01T15:02:50.856Z,4.25
2022-10-01T15:06:05.032Z,4.17
2022-10-01T15:09:15.049Z,5.28
2022-10-01T15:12:24.179Z,6.40
2022-10-01T15:15:31.834Z,5.32
2022-10-01T15:18:39.521Z,5.65
2022-10-01T15:21:48.339Z,4.07
2022-10-01T15:24:55.418Z,4.28
2022-10-01T15:28:00.794Z,5.97
2022-10-01T15:31:07.065Z,3.65
2022-10-01T15:34:22.822Z,3.40
2022-10-01T15:37:31.459Z,3.58
2022-10-01T15:40:38.721Z,4.97
2022-10-01T15:43:43.863Z,5.80
2022-10-01T15:46:49.435Z,3.88
2022-10-01T15:50:19.031Z,6.80
2022-10-01T15:53:26.141Z,5.10
2022-10-01T15:56:32.047Z,4.47
2022-10-01T15:59:39.176Z,4.05
2022-10-01T16:02:47.310Z,3.88
2022-10-01T16:05:59.014Z,3.67
2022-10-01T16:09:09.146Z,4.32
2022-10-01T16:12:23.086Z,4.18
2022-10-01T16:15:29.148Z,4.90
2022-10-01T16:18:41.886Z,4.40
2022-10-01T16:24:55.388Z,4.53
2022-10-01T16:28:03.898Z,5.15
2022-10-01T16:31:11.696Z,4.05
2022-10-01T16:34:18.208Z,4.47
2022-10-01T16:37:26.123Z,5.25
2022-10-01T16:40:34.714Z,3.85
2022-10-01T16:43:40.210Z,4.53
2022-10-01T16:46:46.034Z,4.55
2022-10-01T16:49:52.702Z,5.10
2022-10-01T16:53:01.678Z,5.63
2022-10-01T16:56:10.814Z,5.15
2022-10-01T16:59:16.201Z,4.57
2022-10-01T17:02:21.903Z,5.78
2022-10-01T17:05:28.762Z,4.47
2022-10-01T17:08:34.389Z,4.05
2022-10-01T17:11:44.757Z,4.32
2022-10-01T17:14:51.322Z,3.58
2022-10-01T17:17:56.897Z,4.40
2022-10-01T17:21:04.735Z,5.03
2022-10-01T17:24:10.992Z,5.13
2022-10-01T17:27:19.427Z,4.47
2022-10-01T17:30:25.104Z,4.28
2022-10-01T17:33:30.751Z,5.00
2022-10-01T17:36:36.498Z,4.75
2022-10-01T17:39:46.427Z,5.75
2022-10-01T17:42:54.052Z,4.50
2022-10-01T17:46:02.609Z,5.05
2022-10-01T17:49:09.045Z,5.78
2022-10-01T17:52:17.441Z,4.25
2022-10-01T17:55:29.569Z,6.72
2022-10-01T17:58:41.754Z,6.10
2022-10-01T18:01:51.470Z,3.50
2022-10-01T18:05:01.479Z,4.50
2022-10-01T18:08:06.629Z,5.28
2022-10-01T18:11:19.213Z,5.07
2022-10-01T18:14:27.573Z,4.43
2022-10-01T18:17:36.595Z,5.75
2022-10-01T18:20:42.555Z,5.85
2022-10-01T18:23:48.311Z,6.15
2022-10-01T18:26:55.966Z,6.90
2022-10-01T18:30:05.002Z,5.88
2022-10-01T18:33:15.406Z,6.72
2022-10-01T18:36:28.337Z,8.40
2022-10-01T18:39:38.151Z,6.18
2022-10-01T18:42:47.311Z,5.70
2022-10-01T18:46:05.525Z,5.50
2022-10-01T18:49:19.380Z,6.60
2022-10-01T18:52:30.682Z,6.45
2022-10-01T18:55:57.222Z,6.50
2022-10-01T18:59:20.170Z,9.23
2022-10-01T19:02:40.950Z,6.82
2022-10-01T19:05:56.800Z,7.10
2022-10-01T19:09:08.924Z,8.52
2022-10-01T19:12:23.331Z,9.07
2022-10-01T19:15:34.467Z,8.00
2022-10-01T19:18:47.895Z,7.10
2022-10-01T19:22:00.440Z,11.90
2022-10-01T19:25:21.825Z,11.30
2022-10-01T19:28:52.130Z,8.13
2022-10-01T19:31:59.288Z,7.97
2022-10-01T19:35:09.484Z,8.07
2022-10-01T19:38:18.221Z,8.00
2022-10-01T19:41:31.419Z,10.00
2022-10-01T19:45:03.731Z,8.88
2022-10-01T19:48:49.503Z,9.30
2022-10-01T19:52:00.128Z,12.32
2022-10-01T19:55:07.149Z,11.10
2022-10-01T19:58:18.637Z,10.15
2022-10-01T20:05:23.864Z,7.90
2022-10-01T20:08:47.950Z,9.07
2022-10-01T20:11:58.474Z,9.32
2022-10-01T20:15:14.180Z,11.07
2022-10-01T20:18:28.167Z,8.52
2022-10-01T20:21:43.988Z,9.80
2022-10-01T20:24:59.440Z,9.45
2022-10-01T20:28:09.522Z,8.00
2022-10-01T20:31:19.116Z,10.48
2022-10-01T20:34:31.155Z,11.05
2022-10-01T20:37:43.532Z,8.32
2022-10-01T20:44:03.140Z,8.88
2022-10-01T20:47:11.289Z,8.75
2022-10-01T20:50:22.233Z,11.55
2022-10-01T20:53:34.117Z,8.07
2022-10-01T20:56:42.851Z,8.30
2022-10-01T20:59:58.040Z,13.32
2022-10-01T21:03:09.845Z,8.52
2022-10-01T21:06:21.552Z,7.22
2022-10-01T21:09:32.328Z,10.70
2022-10-01T21:12:41.979Z,9.73
2022-10-01T21:15:58.317Z,11.85
2022-10-01T21:19:14.496Z,5.93
2022-10-01T21:22:32.972Z,7.47
2022-10-01T21:25:51.070Z,8.00
2022-10-01T21:29:13.914Z,11.23
2022-10-01T21:32:30.491Z,6.72
2022-10-01T21:35:39.602Z,10.73
2022-10-01T21:38:49.144Z,7.45
2022-10-01T21:41:57.650Z,6.13
2022-10-01T21:45:18.056Z,7.15
2022-10-01T21:48:30.798Z,6.65
2022-10-01T21:51:45.326Z,7.35
2022-10-01T21:55:04.295Z,6.38
2022-10-01T21:58:24.606Z,7.38
2022-10-01T22:01:43.114Z,9.45
2022-10-01T22:04:55.651Z,6.43
2022-10-01T22:11:10.803Z,7.03
2022-10-01T22:14:18.053Z,7.28
2022-10-01T22:17:27.713Z,5.63
2022-10-01T22:20:38.128Z,7.28
2022-10-01T22:23:48.454Z,4.78
2022-10-01T22:26:57.964Z,8.10
2022-10-01T22:30:05.524Z,5.57
2022-10-01T22:33:14.867Z,5.30
2022-10-01T22:36:29.768Z,4.82
2022-10-01T22:39:39.021Z,8.13
2022-10-01T22:42:46.033Z,4.63
2022-10-01T22:46:04.494Z,5.05
2022-10-01T22:49:20.142Z,7.40
2022-10-01T22:52:36.571Z,7.22
2022-10-01T22:55:48.031Z,5.75
2022-10-01T22:59:04.509Z,7.28
2022-10-01T23:02:14.015Z,6.88
2022-10-01T23:05:25.803Z,3.97
2022-10-01T23:08:41.729Z,4.55
2022-10-01T23:11:53.751Z,5.40
2022-10-01T23:15:05.105Z,6.40
2022-10-01T23:18:15.515Z,5.97
2022-10-01T23:21:27.204Z,2.80
2022-10-01T23:24:42.039Z,5.25
2022-10-01T23:27:59.787Z,5.07
2022-10-01T23:31:09.517Z,5.88
2022-10-01T23:34:26.282Z,5.63
2022-10-01T23:37:47.171Z,5.70
2022-10-01T23:40:56.646Z,5.70
2022-10-01T23:44:08.449Z,6.82
2022-10-01T23:47:19.874Z,8.93
2022-10-01T23:50:33.428Z,5.78
2022-10-01T23:53:40.990Z,5.60
2022-10-01T23:56:49.643Z,4.45
